sensor_id;sensor_type;location;lat;lon;timestamp;temperature;humidity
17489;DHT22;8861;52.644;4.734;2022-08-19T00:01:36;18.10;99.90
17489;DHT22;8861;52.644;4.734;2022-08-19T00:04:05;18.10;99.90
17489;DHT22;8861;52.644;4.734;2022-08-19T00:06:37;18.10;99.90
17489;DHT22;8861;52.644;4.734;2022-08-19T00:09:06;18.10;99.90
17489;DHT22;8861;52.644;4.734;2022-08-19T00:11:35;18.20;99.90
17489;DHT22;8861;52.644;4.734;2022-08-19T00:14:03;18.20;99.90
17489;DHT22;8861;52.644;4.734;2022-08-19T00:16:31;18.10;99.90
17489;DHT22;8861;52.644;4.734;2022-08-19T00:18:58;18.20;99.90
17489;DHT22;8861;52.644;4.734;2022-08-19T00:21:26;18.20;99.90
17489;DHT22;8861;52.644;4.734;2022-08-19T00:23:54;18.20;99.90
17489;DHT22;8861;52.644;4.734;2022-08-19T00:26:24;18.20;99.90
17489;DHT22;8861;52.644;4.734;2022-08-19T00:28:52;18.20;99.90
17489;DHT22;8861;52.644;4.734;2022-08-19T00:31:19;18.20;99.90
17489;DHT22;8861;52.644;4.734;2022-08-19T00:33:46;18.20;99.90
17489;DHT22;8861;52.644;4.734;2022-08-19T00:36:13;18.20;99.90
17489;DHT22;8861;52.644;4.734;2022-08-19T00:38:40;18.20;99.90
17489;DHT22;8861;52.644;4.734;2022-08-19T00:41:09;18.20;99.90
17489;DHT22;8861;52.644;4.734;2022-08-19T00:43:36;18.20;99.90
17489;DHT22;8861;52.644;4.734;2022-08-19T00:46:05;18.20;99.90
17489;DHT22;8861;52.644;4.734;2022-08-19T00:48:33;18.10;99.90
17489;DHT22;8861;52.644;4.734;2022-08-19T00:51:02;18.10;99.90
17489;DHT22;8861;52.644;4.734;2022-08-19T00:53:31;18.10;99.90
17489;DHT22;8861;52.644;4.734;2022-08-19T00:56:00;18.10;99.90
17489;DHT22;8861;52.644;4.734;2022-08-19T00:58:31;18.10;99.90
17489;DHT22;8861;52.644;4.734;2022-08-19T01:00:59;18.10;99.90
17489;DHT22;8861;52.644;4.734;2022-08-19T01:03:27;18.10;99.90
17489;DHT22;8861;52.644;4.734;2022-08-19T01:05:55;18.10;99.90
17489;DHT22;8861;52.644;4.734;2022-08-19T01:08:22;18.10;99.90
17489;DHT22;8861;52.644;4.734;2022-08-19T01:10:52;18.10;99.90
17489;DHT22;8861;52.644;4.734;2022-08-19T01:13:22;18.10;99.90
17489;DHT22;8861;52.644;4.734;2022-08-19T01:15:53;18.10;99.90
17489;DHT22;8861;52.644;4.734;2022-08-19T01:18:21;18.10;99.90
17489;DHT22;8861;52.644;4.734;2022-08-19T01:20:50;18.10;99.90
17489;DHT22;8861;52.644;4.734;2022-08-19T01:23:19;18.20;99.90
17489;DHT22;8861;52.644;4.734;2022-08-19T01:25:49;18.20;99.90
17489;DHT22;8861;52.644;4.734;2022-08-19T01:28:18;18.20;99.90
17489;DHT22;8861;52.644;4.734;2022-08-19T01:30:46;18.20;99.90
17489;DHT22;8861;52.644;4.734;2022-08-19T01:33:13;18.30;99.90
17489;DHT22;8861;52.644;4.734;2022-08-19T01:35:41;18.40;99.90
17489;DHT22;8861;52.644;4.734;2022-08-19T01:38:10;18.40;99.90
17489;DHT22;8861;52.644;4.734;2022-08-19T01:40:46;18.40;99.90
17489;DHT22;8861;52.644;4.734;2022-08-19T01:43:13;18.40;99.90
17489;DHT22;8861;52.644;4.734;2022-08-19T01:45:40;18.40;99.90
17489;DHT22;8861;52.644;4.734;2022-08-19T01:48:08;18.30;99.90
17489;DHT22;8861;52.644;4.734;2022-08-19T01:50:35;18.30;99.90
17489;DHT22;8861;52.644;4.734;2022-08-19T01:53:04;18.20;99.90
17489;DHT22;8861;52.644;4.734;2022-08-19T01:55:32;18.20;99.90
17489;DHT22;8861;52.644;4.734;2022-08-19T01:58:02;18.20;99.90
17489;DHT22;8861;52.644;4.734;2022-08-19T02:00:31;18.20;99.90
17489;DHT22;8861;52.644;4.734;2022-08-19T02:02:58;18.20;99.90
17489;DHT22;8861;52.644;4.734;2022-08-19T02:05:27;18.10;99.90
17489;DHT22;8861;52.644;4.734;2022-08-19T02:07:55;18.10;99.90
17489;DHT22;8861;52.644;4.734;2022-08-19T02:10:22;18.10;99.90
17489;DHT22;8861;52.644;4.734;2022-08-19T02:12:49;18.00;99.90
17489;DHT22;8861;52.644;4.734;2022-08-19T02:15:18;18.10;99.90
17489;DHT22;8861;52.644;4.734;2022-08-19T02:17:45;18.00;99.90
17489;DHT22;8861;52.644;4.734;2022-08-19T02:20:13;18.00;99.90
17489;DHT22;8861;52.644;4.734;2022-08-19T02:22:41;18.00;99.90
17489;DHT22;8861;52.644;4.734;2022-08-19T02:25:09;18.10;99.90
17489;DHT22;8861;52.644;4.734;2022-08-19T02:27:36;18.10;99.90
17489;DHT22;8861;52.644;4.734;2022-08-19T02:30:04;18.00;99.90
17489;DHT22;8861;52.644;4.734;2022-08-19T02:32:32;18.00;99.90
17489;DHT22;8861;52.644;4.734;2022-08-19T02:34:59;18.00;99.90
17489;DHT22;8861;52.644;4.734;2022-08-19T02:37:27;18.00;99.90
17489;DHT22;8861;52.644;4.734;2022-08-19T02:40:11;18.00;99.90
17489;DHT22;8861;52.644;4.734;2022-08-19T02:42:38;18.00;99.90
17489;DHT22;8861;52.644;4.734;2022-08-19T02:45:06;18.00;99.90
17489;DHT22;8861;52.644;4.734;2022-08-19T02:47:36;18.00;99.90
17489;DHT22;8861;52.644;4.734;2022-08-19T02:50:05;18.00;99.90
17489;DHT22;8861;52.644;4.734;2022-08-19T02:52:32;17.90;99.90
17489;DHT22;8861;52.644;4.734;2022-08-19T02:54:59;17.90;99.90
17489;DHT22;8861;52.644;4.734;2022-08-19T02:57:27;17.90;99.90
17489;DHT22;8861;52.644;4.734;2022-08-19T02:59:54;17.90;99.90
17489;DHT22;8861;52.644;4.734;2022-08-19T03:02:21;17.90;99.90
17489;DHT22;8861;52.644;4.734;2022-08-19T03:04:49;17.90;99.90
17489;DHT22;8861;52.644;4.734;2022-08-19T03:07:17;17.90;99.90
17489;DHT22;8861;52.644;4.734;2022-08-19T03:09:44;17.90;99.90
17489;DHT22;8861;52.644;4.734;2022-08-19T03:12:11;17.90;99.90
17489;DHT22;8861;52.644;4.734;2022-08-19T03:14:38;17.90;99.90
17489;DHT22;8861;52.644;4.734;2022-08-19T03:17:05;17.90;99.90
17489;DHT22;8861;52.644;4.734;2022-08-19T03:19:33;17.80;99.90
17489;DHT22;8861;52.644;4.734;2022-08-19T03:22:02;17.80;99.90
17489;DHT22;8861;52.644;4.734;2022-08-19T03:24:29;17.80;99.90
17489;DHT22;8861;52.644;4.734;2022-08-19T03:26:57;17.80;99.90
17489;DHT22;8861;52.644;4.734;2022-08-19T03:29:25;17.80;99.90
17489;DHT22;8861;52.644;4.734;2022-08-19T03:31:52;17.80;99.90
17489;DHT22;8861;52.644;4.734;2022-08-19T03:34:22;17.80;99.90
17489;DHT22;8861;52.644;4.734;2022-08-19T03:36:51;17.80;99.90
17489;DHT22;8861;52.644;4.734;2022-08-19T03:39:20;17.80;99.90
17489;DHT22;8861;52.644;4.734;2022-08-19T03:41:49;17.70;99.90
17489;DHT22;8861;52.644;4.734;2022-08-19T03:44:18;17.80;99.90
17489;DHT22;8861;52.644;4.734;2022-08-19T03:46:47;17.70;99.90
17489;DHT22;8861;52.644;4.734;2022-08-19T03:49:14;17.70;99.90
17489;DHT22;8861;52.644;4.734;2022-08-19T03:51:42;17.70;99.90
17489;DHT22;8861;52.644;4.734;2022-08-19T03:54:11;17.70;99.90
17489;DHT22;8861;52.644;4.734;2022-08-19T03:56:42;17.70;99.90
17489;DHT22;8861;52.644;4.734;2022-08-19T03:59:12;17.70;99.90
17489;DHT22;8861;52.644;4.734;2022-08-19T04:01:39;17.70;99.90
17489;DHT22;8861;52.644;4.734;2022-08-19T04:04:06;17.70;99.90
17489;DHT22;8861;52.644;4.734;2022-08-19T04:06:35;17.70;99.90
17489;DHT22;8861;52.644;4.734;2022-08-19T04:09:06;17.60;99.90
17489;DHT22;8861;52.644;4.734;2022-08-19T04:11:35;17.60;99.90
17489;DHT22;8861;52.644;4.734;2022-08-19T04:14:09;17.70;99.90
17489;DHT22;8861;52.644;4.734;2022-08-19T04:16:36;17.60;99.90
17489;DHT22;8861;52.644;4.734;2022-08-19T04:19:05;17.60;99.90
17489;DHT22;8861;52.644;4.734;2022-08-19T04:21:33;17.60;99.90
17489;DHT22;8861;52.644;4.734;2022-08-19T04:24:01;17.60;99.90
17489;DHT22;8861;52.644;4.734;2022-08-19T04:26:31;17.60;99.90
17489;DHT22;8861;52.644;4.734;2022-08-19T04:28:59;17.60;99.90
17489;DHT22;8861;52.644;4.734;2022-08-19T04:31:29;17.60;99.90
17489;DHT22;8861;52.644;4.734;2022-08-19T04:33:59;17.60;99.90
17489;DHT22;8861;52.644;4.734;2022-08-19T04:36:30;17.60;99.90
17489;DHT22;8861;52.644;4.734;2022-08-19T04:39:00;17.60;99.90
17489;DHT22;8861;52.644;4.734;2022-08-19T04:41:27;17.60;99.90
17489;DHT22;8861;52.644;4.734;2022-08-19T04:44:13;17.60;99.90
17489;DHT22;8861;52.644;4.734;2022-08-19T04:46:41;17.60;99.90
17489;DHT22;8861;52.644;4.734;2022-08-19T04:49:08;17.70;99.90
17489;DHT22;8861;52.644;4.734;2022-08-19T04:51:35;17.70;99.90
17489;DHT22;8861;52.644;4.734;2022-08-19T04:54:04;17.80;99.90
17489;DHT22;8861;52.644;4.734;2022-08-19T04:56:31;17.80;99.90
17489;DHT22;8861;52.644;4.734;2022-08-19T04:58:59;17.80;99.90
17489;DHT22;8861;52.644;4.734;2022-08-19T05:01:30;17.90;99.90
17489;DHT22;8861;52.644;4.734;2022-08-19T05:03:59;18.00;99.90
17489;DHT22;8861;52.644;4.734;2022-08-19T05:06:27;18.00;99.90
17489;DHT22;8861;52.644;4.734;2022-08-19T05:08:58;18.10;99.90
17489;DHT22;8861;52.644;4.734;2022-08-19T05:11:27;18.10;99.90
17489;DHT22;8861;52.644;4.734;2022-08-19T05:13:55;18.10;99.90
17489;DHT22;8861;52.644;4.734;2022-08-19T05:16:23;18.20;99.90
17489;DHT22;8861;52.644;4.734;2022-08-19T05:18:50;18.20;99.90
17489;DHT22;8861;52.644;4.734;2022-08-19T05:21:36;18.30;99.90
17489;DHT22;8861;52.644;4.734;2022-08-19T05:24:22;18.40;99.90
17489;DHT22;8861;52.644;4.734;2022-08-19T05:26:50;18.50;99.90
17489;DHT22;8861;52.644;4.734;2022-08-19T05:29:19;18.50;99.90
17489;DHT22;8861;52.644;4.734;2022-08-19T05:31:48;18.60;99.90
17489;DHT22;8861;52.644;4.734;2022-08-19T05:34:16;18.60;99.90
17489;DHT22;8861;52.644;4.734;2022-08-19T05:36:45;18.60;99.90
17489;DHT22;8861;52.644;4.734;2022-08-19T05:39:15;18.60;99.90
17489;DHT22;8861;52.644;4.734;2022-08-19T05:41:43;18.60;99.90
17489;DHT22;8861;52.644;4.734;2022-08-19T05:44:10;18.60;99.90
17489;DHT22;8861;52.644;4.734;2022-08-19T05:46:38;18.60;99.90
17489;DHT22;8861;52.644;4.734;2022-08-19T05:49:05;18.70;99.90
17489;DHT22;8861;52.644;4.734;2022-08-19T05:51:33;18.70;99.90
17489;DHT22;8861;52.644;4.734;2022-08-19T05:54:02;18.70;99.90
17489;DHT22;8861;52.644;4.734;2022-08-19T05:56:29;18.80;99.90
17489;DHT22;8861;52.644;4.734;2022-08-19T05:58:57;18.90;99.90
17489;DHT22;8861;52.644;4.734;2022-08-19T06:01:25;18.90;99.90
17489;DHT22;8861;52.644;4.734;2022-08-19T06:03:52;19.00;99.90
17489;DHT22;8861;52.644;4.734;2022-08-19T06:06:21;19.10;99.90
17489;DHT22;8861;52.644;4.734;2022-08-19T06:08:48;19.10;99.90
17489;DHT22;8861;52.644;4.734;2022-08-19T06:11:20;19.20;99.90
17489;DHT22;8861;52.644;4.734;2022-08-19T06:13:49;19.20;99.90
17489;DHT22;8861;52.644;4.734;2022-08-19T06:16:19;19.30;99.90
17489;DHT22;8861;52.644;4.734;2022-08-19T06:18:48;19.30;99.90
17489;DHT22;8861;52.644;4.734;2022-08-19T06:21:17;19.50;99.90
17489;DHT22;8861;52.644;4.734;2022-08-19T06:23:45;19.70;99.90
17489;DHT22;8861;52.644;4.734;2022-08-19T06:26:13;19.90;99.90
17489;DHT22;8861;52.644;4.734;2022-08-19T06:28:42;20.20;99.90
17489;DHT22;8861;52.644;4.734;2022-08-19T06:31:13;20.50;99.90
17489;DHT22;8861;52.644;4.734;2022-08-19T06:33:41;20.70;99.90
17489;DHT22;8861;52.644;4.734;2022-08-19T06:36:16;21.00;99.90
17489;DHT22;8861;52.644;4.734;2022-08-19T06:38:43;21.20;99.90
17489;DHT22;8861;52.644;4.734;2022-08-19T06:41:10;21.50;99.90
17489;DHT22;8861;52.644;4.734;2022-08-19T06:43:37;21.70;99.90
17489;DHT22;8861;52.644;4.734;2022-08-19T06:46:10;21.90;99.90
17489;DHT22;8861;52.644;4.734;2022-08-19T06:48:37;22.00;99.90
17489;DHT22;8861;52.644;4.734;2022-08-19T06:51:04;22.10;99.90
17489;DHT22;8861;52.644;4.734;2022-08-19T06:53:32;22.20;99.90
17489;DHT22;8861;52.644;4.734;2022-08-19T06:55:59;22.20;99.90
17489;DHT22;8861;52.644;4.734;2022-08-19T06:58:28;22.30;99.90
17489;DHT22;8861;52.644;4.734;2022-08-19T07:00:58;22.40;99.90
17489;DHT22;8861;52.644;4.734;2022-08-19T07:03:29;22.50;99.90
17489;DHT22;8861;52.644;4.734;2022-08-19T07:05:56;22.60;99.90
17489;DHT22;8861;52.644;4.734;2022-08-19T07:08:24;22.60;99.90
17489;DHT22;8861;52.644;4.734;2022-08-19T07:10:52;22.60;99.90
17489;DHT22;8861;52.644;4.734;2022-08-19T07:13:20;22.60;99.90
17489;DHT22;8861;52.644;4.734;2022-08-19T07:15:48;22.50;99.90
17489;DHT22;8861;52.644;4.734;2022-08-19T07:18:17;22.50;99.90
17489;DHT22;8861;52.644;4.734;2022-08-19T07:20:45;22.50;99.90
17489;DHT22;8861;52.644;4.734;2022-08-19T07:23:13;22.50;99.90
17489;DHT22;8861;52.644;4.734;2022-08-19T07:25:40;22.40;99.90
17489;DHT22;8861;52.644;4.734;2022-08-19T07:28:08;22.40;99.90
17489;DHT22;8861;52.644;4.734;2022-08-19T07:30:38;22.40;99.90
17489;DHT22;8861;52.644;4.734;2022-08-19T07:33:06;22.40;99.90
17489;DHT22;8861;52.644;4.734;2022-08-19T07:35:33;22.30;99.90
17489;DHT22;8861;52.644;4.734;2022-08-19T07:38:01;22.20;99.90
17489;DHT22;8861;52.644;4.734;2022-08-19T07:40:30;22.20;99.90
17489;DHT22;8861;52.644;4.734;2022-08-19T07:42:57;22.20;99.90
17489;DHT22;8861;52.644;4.734;2022-08-19T07:45:24;22.10;99.90
17489;DHT22;8861;52.644;4.734;2022-08-19T07:47:53;22.10;99.90
17489;DHT22;8861;52.644;4.734;2022-08-19T07:50:21;22.10;99.90
17489;DHT22;8861;52.644;4.734;2022-08-19T07:52:48;22.00;99.90
17489;DHT22;8861;52.644;4.734;2022-08-19T07:55:20;21.90;99.90
17489;DHT22;8861;52.644;4.734;2022-08-19T07:57:47;21.90;99.90
17489;DHT22;8861;52.644;4.734;2022-08-19T08:00:15;21.90;99.90
17489;DHT22;8861;52.644;4.734;2022-08-19T08:02:42;21.80;99.90
17489;DHT22;8861;52.644;4.734;2022-08-19T08:05:09;21.90;99.90
17489;DHT22;8861;52.644;4.734;2022-08-19T08:07:52;22.00;99.90
17489;DHT22;8861;52.644;4.734;2022-08-19T08:10:38;22.10;99.90
17489;DHT22;8861;52.644;4.734;2022-08-19T08:13:05;22.20;99.90
17489;DHT22;8861;52.644;4.734;2022-08-19T08:15:32;22.30;99.90
17489;DHT22;8861;52.644;4.734;2022-08-19T08:18:01;22.30;99.90
17489;DHT22;8861;52.644;4.734;2022-08-19T08:20:28;22.40;99.90
17489;DHT22;8861;52.644;4.734;2022-08-19T08:22:55;22.60;99.90
17489;DHT22;8861;52.644;4.734;2022-08-19T08:25:40;22.70;99.90
17489;DHT22;8861;52.644;4.734;2022-08-19T08:28:07;22.60;99.90
17489;DHT22;8861;52.644;4.734;2022-08-19T08:30:34;22.60;99.90
17489;DHT22;8861;52.644;4.734;2022-08-19T08:33:03;22.60;99.90
17489;DHT22;8861;52.644;4.734;2022-08-19T08:35:31;22.50;99.90
17489;DHT22;8861;52.644;4.734;2022-08-19T08:37:59;22.50;99.90
17489;DHT22;8861;52.644;4.734;2022-08-19T08:40:29;22.70;99.90
17489;DHT22;8861;52.644;4.734;2022-08-19T08:43:03;22.60;99.90
17489;DHT22;8861;52.644;4.734;2022-08-19T08:45:30;22.60;99.90
17489;DHT22;8861;52.644;4.734;2022-08-19T08:48:04;22.40;99.90
17489;DHT22;8861;52.644;4.734;2022-08-19T08:50:41;22.40;99.90
17489;DHT22;8861;52.644;4.734;2022-08-19T08:53:16;22.40;99.90
17489;DHT22;8861;52.644;4.734;2022-08-19T08:55:44;22.40;99.90
17489;DHT22;8861;52.644;4.734;2022-08-19T08:58:18;22.60;99.90
17489;DHT22;8861;52.644;4.734;2022-08-19T09:00:48;22.90;99.90
17489;DHT22;8861;52.644;4.734;2022-08-19T09:03:18;23.10;99.90
17489;DHT22;8861;52.644;4.734;2022-08-19T09:05:56;23.40;99.90
17489;DHT22;8861;52.644;4.734;2022-08-19T09:08:32;23.40;99.90
17489;DHT22;8861;52.644;4.734;2022-08-19T09:11:04;23.30;99.90
17489;DHT22;8861;52.644;4.734;2022-08-19T09:13:41;23.40;99.90
17489;DHT22;8861;52.644;4.734;2022-08-19T09:16:11;23.40;99.90
17489;DHT22;8861;52.644;4.734;2022-08-19T09:18:43;23.60;99.90
17489;DHT22;8861;52.644;4.734;2022-08-19T09:21:11;23.70;99.90
17489;DHT22;8861;52.644;4.734;2022-08-19T09:23:38;23.90;99.90
17489;DHT22;8861;52.644;4.734;2022-08-19T09:26:09;24.00;99.90
17489;DHT22;8861;52.644;4.734;2022-08-19T09:28:40;24.10;99.90
17489;DHT22;8861;52.644;4.734;2022-08-19T09:31:09;24.10;99.90
17489;DHT22;8861;52.644;4.734;2022-08-19T09:33:36;24.00;99.90
17489;DHT22;8861;52.644;4.734;2022-08-19T09:36:05;24.10;99.90
17489;DHT22;8861;52.644;4.734;2022-08-19T09:38:33;24.30;99.90
17489;DHT22;8861;52.644;4.734;2022-08-19T09:41:04;24.50;99.90
17489;DHT22;8861;52.644;4.734;2022-08-19T09:43:31;24.70;99.90
17489;DHT22;8861;52.644;4.734;2022-08-19T09:46:00;24.80;99.90
17489;DHT22;8861;52.644;4.734;2022-08-19T09:48:27;24.80;99.90
17489;DHT22;8861;52.644;4.734;2022-08-19T09:50:54;24.80;99.90
17489;DHT22;8861;52.644;4.734;2022-08-19T09:53:21;24.80;99.90
17489;DHT22;8861;52.644;4.734;2022-08-19T09:55:48;24.80;99.90
17489;DHT22;8861;52.644;4.734;2022-08-19T09:58:16;24.90;99.90
17489;DHT22;8861;52.644;4.734;2022-08-19T10:00:43;25.00;99.90
17489;DHT22;8861;52.644;4.734;2022-08-19T10:03:12;25.00;99.90
17489;DHT22;8861;52.644;4.734;2022-08-19T10:05:39;24.90;99.90
17489;DHT22;8861;52.644;4.734;2022-08-19T10:08:16;24.70;99.90
17489;DHT22;8861;52.644;4.734;2022-08-19T10:10:44;24.70;99.90
17489;DHT22;8861;52.644;4.734;2022-08-19T10:13:12;24.80;99.90
17489;DHT22;8861;52.644;4.734;2022-08-19T10:15:40;24.90;99.90
17489;DHT22;8861;52.644;4.734;2022-08-19T10:18:08;24.90;99.90
17489;DHT22;8861;52.644;4.734;2022-08-19T10:20:36;25.00;99.90
17489;DHT22;8861;52.644;4.734;2022-08-19T10:23:03;25.10;99.90
17489;DHT22;8861;52.644;4.734;2022-08-19T10:25:32;25.30;99.90
17489;DHT22;8861;52.644;4.734;2022-08-19T10:27:59;25.40;99.90
17489;DHT22;8861;52.644;4.734;2022-08-19T10:30:26;25.50;99.90
17489;DHT22;8861;52.644;4.734;2022-08-19T10:32:53;25.50;99.90
17489;DHT22;8861;52.644;4.734;2022-08-19T10:35:20;25.40;99.90
17489;DHT22;8861;52.644;4.734;2022-08-19T10:37:49;25.40;99.90
17489;DHT22;8861;52.644;4.734;2022-08-19T10:40:16;25.50;99.90
17489;DHT22;8861;52.644;4.734;2022-08-19T10:42:43;25.50;99.90
17489;DHT22;8861;52.644;4.734;2022-08-19T10:45:10;25.60;99.90
17489;DHT22;8861;52.644;4.734;2022-08-19T10:47:37;25.60;99.90
17489;DHT22;8861;52.644;4.734;2022-08-19T10:50:05;25.50;99.90
17489;DHT22;8861;52.644;4.734;2022-08-19T10:52:50;25.50;99.90
17489;DHT22;8861;52.644;4.734;2022-08-19T10:55:20;25.40;99.90
17489;DHT22;8861;52.644;4.734;2022-08-19T10:58:10;25.40;99.90
17489;DHT22;8861;52.644;4.734;2022-08-19T11:00:37;25.50;99.90
17489;DHT22;8861;52.644;4.734;2022-08-19T11:03:05;25.60;99.90
17489;DHT22;8861;52.644;4.734;2022-08-19T11:05:32;25.80;99.90
17489;DHT22;8861;52.644;4.734;2022-08-19T11:08:00;25.80;99.90
17489;DHT22;8861;52.644;4.734;2022-08-19T11:10:27;25.70;99.90
17489;DHT22;8861;52.644;4.734;2022-08-19T11:12:54;25.50;99.90
17489;DHT22;8861;52.644;4.734;2022-08-19T11:15:21;25.20;99.90
17489;DHT22;8861;52.644;4.734;2022-08-19T11:17:49;25.20;99.90
17489;DHT22;8861;52.644;4.734;2022-08-19T11:20:19;25.20;99.90
17489;DHT22;8861;52.644;4.734;2022-08-19T11:22:46;25.30;99.90
17489;DHT22;8861;52.644;4.734;2022-08-19T11:25:15;25.40;99.90
17489;DHT22;8861;52.644;4.734;2022-08-19T11:27:42;25.50;99.90
17489;DHT22;8861;52.644;4.734;2022-08-19T11:30:11;25.70;99.90
17489;DHT22;8861;52.644;4.734;2022-08-19T11:32:39;25.90;99.90
17489;DHT22;8861;52.644;4.734;2022-08-19T11:35:07;26.10;99.90
17489;DHT22;8861;52.644;4.734;2022-08-19T11:37:34;26.30;99.90
17489;DHT22;8861;52.644;4.734;2022-08-19T11:40:04;26.40;99.90
17489;DHT22;8861;52.644;4.734;2022-08-19T11:42:32;26.60;99.90
17489;DHT22;8861;52.644;4.734;2022-08-19T11:45:17;26.80;99.90
17489;DHT22;8861;52.644;4.734;2022-08-19T11:47:44;26.80;99.90
17489;DHT22;8861;52.644;4.734;2022-08-19T11:50:12;26.80;99.90
17489;DHT22;8861;52.644;4.734;2022-08-19T11:52:39;26.70;99.90
17489;DHT22;8861;52.644;4.734;2022-08-19T11:55:07;26.60;99.90
17489;DHT22;8861;52.644;4.734;2022-08-19T11:57:36;26.60;99.90
17489;DHT22;8861;52.644;4.734;2022-08-19T12:00:04;26.70;99.90
17489;DHT22;8861;52.644;4.734;2022-08-19T12:02:32;26.80;99.90
17489;DHT22;8861;52.644;4.734;2022-08-19T12:04:59;26.90;99.90
17489;DHT22;8861;52.644;4.734;2022-08-19T12:07:27;27.10;99.90
17489;DHT22;8861;52.644;4.734;2022-08-19T12:09:57;27.30;99.90
17489;DHT22;8861;52.644;4.734;2022-08-19T12:12:23;27.40;99.90
17489;DHT22;8861;52.644;4.734;2022-08-19T12:14:55;27.50;99.90
17489;DHT22;8861;52.644;4.734;2022-08-19T12:17:24;27.60;99.90
17489;DHT22;8861;52.644;4.734;2022-08-19T12:19:51;27.80;99.90
17489;DHT22;8861;52.644;4.734;2022-08-19T12:22:18;28.50;99.90
17489;DHT22;8861;52.644;4.734;2022-08-19T12:24:46;29.00;99.90
17489;DHT22;8861;52.644;4.734;2022-08-19T12:27:13;29.30;99.90
17489;DHT22;8861;52.644;4.734;2022-08-19T12:29:40;29.20;99.90
17489;DHT22;8861;52.644;4.734;2022-08-19T12:32:08;29.00;99.90
17489;DHT22;8861;52.644;4.734;2022-08-19T12:34:35;28.70;99.90
17489;DHT22;8861;52.644;4.734;2022-08-19T12:37:05;28.50;99.90
17489;DHT22;8861;52.644;4.734;2022-08-19T12:39:35;28.10;99.90
17489;DHT22;8861;52.644;4.734;2022-08-19T12:42:03;27.70;99.90
17489;DHT22;8861;52.644;4.734;2022-08-19T12:44:30;27.50;99.90
17489;DHT22;8861;52.644;4.734;2022-08-19T12:46:58;27.40;99.90
17489;DHT22;8861;52.644;4.734;2022-08-19T12:49:27;27.10;99.90
17489;DHT22;8861;52.644;4.734;2022-08-19T12:51:54;26.70;99.90
17489;DHT22;8861;52.644;4.734;2022-08-19T12:54:21;26.30;99.90
17489;DHT22;8861;52.644;4.734;2022-08-19T12:56:48;26.10;99.90
17489;DHT22;8861;52.644;4.734;2022-08-19T12:59:15;25.90;99.90
17489;DHT22;8861;52.644;4.734;2022-08-19T13:01:43;26.00;99.90
17489;DHT22;8861;52.644;4.734;2022-08-19T13:04:11;26.00;99.90
17489;DHT22;8861;52.644;4.734;2022-08-19T13:06:39;25.90;99.90
17489;DHT22;8861;52.644;4.734;2022-08-19T13:09:08;26.00;99.90
17489;DHT22;8861;52.644;4.734;2022-08-19T13:11:35;26.20;99.90
17489;DHT22;8861;52.644;4.734;2022-08-19T13:14:03;26.30;99.90
17489;DHT22;8861;52.644;4.734;2022-08-19T13:16:30;26.40;99.90
17489;DHT22;8861;52.644;4.734;2022-08-19T13:18:58;26.50;99.90
17489;DHT22;8861;52.644;4.734;2022-08-19T13:21:27;26.60;99.90
17489;DHT22;8861;52.644;4.734;2022-08-19T13:23:57;26.50;99.90
17489;DHT22;8861;52.644;4.734;2022-08-19T13:26:24;26.30;99.90
17489;DHT22;8861;52.644;4.734;2022-08-19T13:28:51;26.20;99.90
17489;DHT22;8861;52.644;4.734;2022-08-19T13:31:38;26.10;99.90
17489;DHT22;8861;52.644;4.734;2022-08-19T13:34:29;26.20;99.90
17489;DHT22;8861;52.644;4.734;2022-08-19T13:36:56;26.30;99.90
17489;DHT22;8861;52.644;4.734;2022-08-19T13:39:25;26.20;99.90
17489;DHT22;8861;52.644;4.734;2022-08-19T13:41:52;26.30;99.90
17489;DHT22;8861;52.644;4.734;2022-08-19T13:44:19;26.40;99.90
17489;DHT22;8861;52.644;4.734;2022-08-19T13:46:47;26.50;99.90
17489;DHT22;8861;52.644;4.734;2022-08-19T13:49:19;26.40;99.90
17489;DHT22;8861;52.644;4.734;2022-08-19T13:51:46;26.40;99.90
17489;DHT22;8861;52.644;4.734;2022-08-19T13:54:13;26.20;99.90
17489;DHT22;8861;52.644;4.734;2022-08-19T13:56:43;26.10;99.90
17489;DHT22;8861;52.644;4.734;2022-08-19T13:59:10;26.10;99.90
17489;DHT22;8861;52.644;4.734;2022-08-19T14:01:37;26.00;99.90
17489;DHT22;8861;52.644;4.734;2022-08-19T14:04:05;25.90;99.90
17489;DHT22;8861;52.644;4.734;2022-08-19T14:06:32;26.00;99.90
17489;DHT22;8861;52.644;4.734;2022-08-19T14:08:59;26.10;99.90
17489;DHT22;8861;52.644;4.734;2022-08-19T14:11:27;26.30;99.90
17489;DHT22;8861;52.644;4.734;2022-08-19T14:13:55;26.30;99.90
17489;DHT22;8861;52.644;4.734;2022-08-19T14:16:22;26.30;99.90
17489;DHT22;8861;52.644;4.734;2022-08-19T14:18:50;26.30;99.90
17489;DHT22;8861;52.644;4.734;2022-08-19T14:21:19;26.50;99.90
17489;DHT22;8861;52.644;4.734;2022-08-19T14:23:48;26.90;99.90
17489;DHT22;8861;52.644;4.734;2022-08-19T14:26:16;27.00;99.90
17489;DHT22;8861;52.644;4.734;2022-08-19T14:28:44;27.00;99.90
17489;DHT22;8861;52.644;4.734;2022-08-19T14:31:15;26.90;99.90
17489;DHT22;8861;52.644;4.734;2022-08-19T14:33:44;26.70;99.90
17489;DHT22;8861;52.644;4.734;2022-08-19T14:36:12;26.40;99.90
17489;DHT22;8861;52.644;4.734;2022-08-19T14:38:39;26.20;99.90
17489;DHT22;8861;52.644;4.734;2022-08-19T14:41:11;26.10;99.90
17489;DHT22;8861;52.644;4.734;2022-08-19T14:43:39;26.10;99.90
17489;DHT22;8861;52.644;4.734;2022-08-19T14:46:07;26.10;99.90
17489;DHT22;8861;52.644;4.734;2022-08-19T14:48:37;26.10;99.90
17489;DHT22;8861;52.644;4.734;2022-08-19T14:51:04;26.10;99.90
17489;DHT22;8861;52.644;4.734;2022-08-19T14:53:31;26.10;99.90
17489;DHT22;8861;52.644;4.734;2022-08-19T14:55:59;25.90;99.90
17489;DHT22;8861;52.644;4.734;2022-08-19T14:58:27;25.90;99.90
17489;DHT22;8861;52.644;4.734;2022-08-19T15:00:54;25.80;99.90
17489;DHT22;8861;52.644;4.734;2022-08-19T15:03:21;25.70;99.90
17489;DHT22;8861;52.644;4.734;2022-08-19T15:05:49;25.90;99.90
17489;DHT22;8861;52.644;4.734;2022-08-19T15:08:19;26.20;99.90
17489;DHT22;8861;52.644;4.734;2022-08-19T15:10:48;26.50;99.90
17489;DHT22;8861;52.644;4.734;2022-08-19T15:13:16;26.50;99.90
17489;DHT22;8861;52.644;4.734;2022-08-19T15:15:43;26.40;99.90
17489;DHT22;8861;52.644;4.734;2022-08-19T15:18:10;26.40;99.90
17489;DHT22;8861;52.644;4.734;2022-08-19T15:20:38;26.30;99.90
17489;DHT22;8861;52.644;4.734;2022-08-19T15:23:06;26.10;99.90
17489;DHT22;8861;52.644;4.734;2022-08-19T15:25:33;25.80;99.90
17489;DHT22;8861;52.644;4.734;2022-08-19T15:28:01;25.50;99.90
17489;DHT22;8861;52.644;4.734;2022-08-19T15:30:28;25.20;99.90
17489;DHT22;8861;52.644;4.734;2022-08-19T15:32:57;24.90;99.90
17489;DHT22;8861;52.644;4.734;2022-08-19T15:35:24;24.60;99.90
17489;DHT22;8861;52.644;4.734;2022-08-19T15:37:52;24.50;99.90
17489;DHT22;8861;52.644;4.734;2022-08-19T15:40:23;24.40;99.90
17489;DHT22;8861;52.644;4.734;2022-08-19T15:42:50;24.40;99.90
17489;DHT22;8861;52.644;4.734;2022-08-19T15:45:19;24.40;99.90
17489;DHT22;8861;52.644;4.734;2022-08-19T15:47:47;24.50;99.90
17489;DHT22;8861;52.644;4.734;2022-08-19T15:50:15;24.70;99.90
17489;DHT22;8861;52.644;4.734;2022-08-19T15:52:47;24.90;99.90
17489;DHT22;8861;52.644;4.734;2022-08-19T15:55:16;24.90;99.90